createdAt,value
2018-07-11T00:02:47.107Z,99.99
2018-07-11T00:05:50.753Z,100.11
2018-07-11T00:08:54.601Z,100.15
2018-07-11T00:11:58.442Z,100.17
2018-07-11T00:15:02.303Z,100.20
2018-07-11T00:18:06.026Z,100.28
2018-07-11T00:21:09.771Z,100.30
2018-07-11T00:24:13.422Z,100.30
2018-07-11T00:27:17.069Z,100.42
2018-07-11T00:30:20.715Z,100.53
2018-07-11T00:33:24.510Z,100.49
2018-07-11T00:36:28.188Z,100.46
2018-07-11T00:39:31.907Z,100.49
2018-07-11T00:42:35.758Z,100.40
2018-07-11T00:45:39.733Z,100.39
2018-07-11T00:48:43.486Z,100.42
2018-07-11T00:51:47.217Z,100.50
2018-07-11T00:54:50.927Z,100.45
2018-07-11T00:57:54.731Z,100.46
2018-07-11T01:01:11.174Z,100.49
2018-07-11T01:04:14.819Z,100.44
2018-07-11T01:07:18.549Z,100.49
2018-07-11T01:10:22.337Z,100.59
2018-07-11T01:13:26.751Z,100.62
2018-07-11T01:16:30.739Z,100.62
2018-07-11T01:19:34.409Z,100.60
2018-07-11T01:22:38.028Z,100.56
2018-07-11T01:25:41.922Z,100.53
2018-07-11T01:28:45.541Z,100.45
2018-07-11T01:31:49.094Z,100.39
2018-07-11T01:34:52.772Z,100.34
2018-07-11T01:37:56.507Z,100.37
2018-07-11T01:41:00.247Z,100.16
2018-07-11T01:44:04.147Z,100.13
2018-07-11T01:47:07.823Z,100.04
2018-07-11T01:50:11.494Z,99.99
2018-07-11T01:53:15.139Z,99.95
2018-07-11T01:56:18.903Z,99.82
2018-07-11T01:59:23.942Z,99.88
2018-07-11T02:02:27.537Z,99.77
2018-07-11T02:05:31.299Z,99.77
2018-07-11T02:08:35.232Z,99.81
2018-07-11T02:11:38.937Z,99.77
2018-07-11T02:14:45.464Z,99.68
2018-07-11T02:17:49.112Z,99.61
2018-07-11T02:20:53.771Z,99.48
2018-07-11T02:24:00.593Z,99.33
2018-07-11T02:27:04.206Z,99.22
2018-07-11T02:30:07.838Z,99.20
2018-07-11T02:33:11.520Z,99.22
2018-07-11T02:36:15.194Z,99.18
2018-07-11T02:39:18.767Z,99.03
2018-07-11T02:42:22.446Z,99.01
2018-07-11T02:45:26.123Z,98.96
2018-07-11T02:48:29.750Z,98.90
2018-07-11T02:51:33.559Z,98.82
2018-07-11T02:54:37.173Z,98.63
2018-07-11T02:57:40.843Z,98.47
2018-07-11T03:00:44.445Z,98.50
2018-07-11T03:03:48.064Z,98.46
2018-07-11T03:06:51.665Z,98.44
2018-07-11T03:09:55.278Z,98.49
2018-07-11T03:12:58.994Z,98.38
2018-07-11T03:16:02.785Z,98.17
2018-07-11T03:19:06.462Z,98.28
2018-07-11T03:22:10.094Z,98.21
2018-07-11T03:25:13.852Z,98.21
2018-07-11T03:28:17.844Z,97.92
2018-07-11T03:31:21.564Z,97.94
2018-07-11T03:34:25.221Z,98.04
2018-07-11T03:37:29.125Z,98.08
2018-07-11T03:40:32.822Z,97.98
2018-07-11T03:43:36.480Z,97.84
2018-07-11T03:46:40.173Z,97.70
2018-07-11T03:49:43.774Z,97.56
2018-07-11T03:52:47.364Z,97.64
2018-07-11T03:55:50.959Z,97.73
2018-07-11T03:58:55.045Z,97.69
2018-07-11T04:01:58.625Z,97.66
2018-07-11T04:05:02.215Z,97.60
2018-07-11T04:08:05.884Z,97.48
2018-07-11T04:11:09.513Z,97.47
2018-07-11T04:14:13.023Z,97.20
2018-07-11T04:17:16.766Z,97.20
2018-07-11T04:20:20.415Z,96.97
2018-07-11T04:23:24.446Z,96.84
2018-07-11T04:26:28.234Z,96.32
2018-07-11T04:29:32.032Z,96.47
2018-07-11T04:32:36.446Z,96.55
2018-07-11T04:35:40.286Z,96.15
2018-07-11T04:38:44.040Z,96.27
2018-07-11T04:41:47.910Z,96.09
2018-07-11T04:44:51.609Z,95.73
2018-07-11T04:47:55.274Z,95.65
2018-07-11T04:50:58.959Z,95.41
2018-07-11T04:54:02.690Z,95.28
2018-07-11T04:57:06.352Z,95.09
2018-07-11T05:00:09.934Z,94.73
2018-07-11T05:03:13.601Z,94.80
2018-07-11T05:06:17.180Z,94.66
2018-07-11T05:09:20.736Z,94.47
2018-07-11T05:12:24.490Z,93.99
2018-07-11T05:15:28.130Z,93.96
2018-07-11T05:18:31.886Z,94.25
2018-07-11T05:21:35.616Z,93.38
2018-07-11T05:24:39.347Z,93.84
2018-07-11T05:27:43.064Z,93.81
2018-07-11T05:30:46.629Z,94.15
2018-07-11T05:33:50.200Z,94.30
2018-07-11T05:36:53.787Z,94.15
2018-07-11T05:39:57.402Z,94.27
2018-07-11T05:43:01.078Z,94.51
2018-07-11T05:46:04.755Z,94.44
2018-07-11T05:49:08.416Z,94.51
2018-07-11T05:52:12.183Z,94.56
2018-07-11T05:55:15.808Z,94.64
2018-07-11T05:58:19.361Z,94.84
2018-07-11T06:01:23.092Z,94.81
2018-07-11T06:04:26.615Z,94.97
2018-07-11T06:07:30.286Z,94.09
2018-07-11T06:10:34.038Z,93.93
2018-07-11T06:13:37.571Z,94.26
2018-07-11T06:16:41.196Z,93.56
2018-07-11T06:19:44.820Z,93.74
2018-07-11T06:22:48.507Z,94.18
2018-07-11T06:25:52.196Z,93.63
2018-07-11T06:28:55.717Z,93.03
2018-07-11T06:31:59.311Z,92.99
2018-07-11T06:35:02.877Z,91.48
2018-07-11T06:38:06.551Z,91.26
2018-07-11T06:41:10.138Z,90.95
2018-07-11T06:44:13.856Z,91.78
2018-07-11T06:47:17.431Z,92.12
2018-07-11T06:50:21.053Z,92.50
2018-07-11T06:53:24.711Z,93.22
2018-07-11T06:56:28.295Z,93.83
2018-07-11T06:59:32.037Z,93.47
2018-07-11T07:02:35.641Z,93.83
2018-07-11T07:05:39.193Z,94.05
2018-07-11T07:08:42.847Z,94.55
2018-07-11T07:11:46.473Z,94.82
2018-07-11T07:14:50.123Z,94.73
2018-07-11T07:17:53.823Z,94.96
2018-07-11T07:20:57.388Z,94.99
2018-07-11T07:24:01.077Z,94.87
2018-07-11T07:27:04.842Z,94.99
2018-07-11T07:30:08.462Z,94.97
2018-07-11T07:33:12.063Z,94.39
2018-07-11T07:36:15.603Z,93.70
2018-07-11T07:39:19.291Z,93.06
2018-07-11T07:42:22.992Z,92.85
2018-07-11T07:45:26.592Z,92.68
2018-07-11T07:48:30.359Z,91.58
2018-07-11T07:51:34.108Z,90.25
2018-07-11T07:54:37.938Z,90.14
2018-07-11T07:57:42.267Z,90.50
2018-07-11T08:00:46.134Z,90.30
2018-07-11T08:03:50.063Z,90.94
2018-07-11T08:06:54.180Z,91.94
2018-07-11T08:12:59.512Z,92.24
2018-07-11T08:16:03.242Z,92.73
2018-07-11T08:19:06.934Z,92.82
2018-07-11T08:22:21.964Z,92.64
2018-07-11T08:25:36.678Z,92.66
2018-07-11T08:31:27.422Z,93.29
2018-07-11T08:36:45.223Z,93.22
2018-07-11T08:42:12.526Z,93.22
2018-07-11T08:45:28.280Z,93.27
2018-07-11T08:48:41.799Z,93.54
2018-07-11T08:51:56.648Z,93.60
2018-07-11T08:57:15.725Z,93.48
2018-07-11T09:01:29.003Z,93.63
2018-07-11T09:04:47.933Z,93.37
2018-07-11T09:08:10.425Z,93.36
2018-07-11T09:11:25.301Z,93.64
2018-07-11T09:14:52.597Z,93.70
2018-07-11T09:18:07.548Z,93.82
2018-07-11T09:22:18.702Z,93.67
2018-07-11T09:25:22.597Z,94.99
2018-07-11T09:28:26.319Z,95.15
2018-07-11T09:31:29.922Z,95.15
2018-07-11T09:34:33.882Z,94.75
2018-07-11T09:37:37.525Z,94.37
2018-07-11T09:40:41.188Z,93.96
2018-07-11T09:43:44.848Z,93.87
2018-07-11T09:46:48.479Z,94.15
2018-07-11T09:49:52.123Z,94.63
2018-07-11T09:52:55.844Z,94.78
2018-07-11T09:55:59.444Z,94.97
2018-07-11T09:59:03.265Z,95.00
2018-07-11T10:02:07.015Z,95.60
2018-07-11T10:05:10.641Z,95.35
2018-07-11T10:08:14.339Z,95.54
2018-07-11T10:11:24.369Z,95.96
2018-07-11T10:14:28.029Z,96.73
2018-07-11T10:17:31.660Z,96.79
2018-07-11T10:20:35.264Z,96.85
2018-07-11T10:23:39.050Z,96.60
2018-07-11T10:26:42.669Z,96.61
2018-07-11T10:29:46.398Z,96.37
2018-07-11T10:32:50.044Z,96.18
2018-07-11T10:35:53.800Z,95.89
2018-07-11T10:38:57.490Z,96.89
2018-07-11T10:42:01.250Z,96.82
2018-07-11T10:45:05.019Z,97.34
2018-07-11T10:48:08.556Z,97.67
2018-07-11T10:51:12.320Z,97.58
2018-07-11T10:54:16.006Z,97.51
2018-07-11T10:57:19.717Z,97.63
2018-07-11T11:00:36.656Z,97.78
2018-07-11T11:03:31.241Z,97.80
2018-07-11T11:06:34.936Z,97.84
2018-07-11T11:09:38.676Z,97.31
2018-07-11T11:12:42.415Z,97.53
2018-07-11T11:15:46.065Z,97.53
2018-07-11T11:18:49.709Z,97.46
2018-07-11T11:21:53.344Z,97.44
2018-07-11T11:24:57.019Z,97.54
2018-07-11T11:28:00.755Z,97.35
2018-07-11T11:31:04.529Z,97.19
2018-07-11T11:34:08.112Z,97.35
2018-07-11T11:37:11.717Z,97.40
2018-07-11T11:40:15.289Z,97.33
2018-07-11T11:43:18.938Z,97.10
2018-07-11T11:46:22.606Z,96.63
2018-07-11T11:49:26.355Z,96.50
2018-07-11T11:52:30.106Z,96.69
2018-07-11T11:55:33.789Z,96.66
2018-07-11T11:58:37.652Z,96.58
2018-07-11T12:01:41.224Z,96.39
2018-07-11T12:04:44.809Z,95.80
2018-07-11T12:07:48.500Z,95.25
2018-07-11T12:10:52.253Z,94.99
2018-07-11T12:13:55.940Z,95.09
2018-07-11T12:16:59.559Z,95.31
2018-07-11T12:20:03.250Z,95.43
2018-07-11T12:23:06.826Z,95.15
2018-07-11T12:26:11.175Z,95.44
2018-07-11T12:29:15.066Z,95.89
2018-07-11T12:32:18.749Z,95.97
2018-07-11T12:35:22.456Z,96.59
2018-07-11T12:38:26.257Z,97.14
2018-07-11T12:41:29.885Z,97.36
2018-07-11T12:44:33.760Z,97.43
2018-07-11T12:47:42.831Z,97.42
2018-07-11T12:50:46.487Z,97.80
2018-07-11T12:53:50.124Z,97.73
2018-07-11T12:56:54.116Z,97.74
2018-07-11T12:59:57.784Z,97.93
2018-07-11T13:03:01.620Z,97.69
2018-07-11T13:06:05.670Z,97.06
2018-07-11T13:09:09.621Z,96.20
2018-07-11T13:12:13.297Z,95.67
2018-07-11T13:15:17.084Z,94.82
2018-07-11T13:18:20.767Z,93.75
2018-07-11T13:21:24.623Z,90.90
2018-07-11T13:24:28.454Z,90.39
2018-07-11T13:27:32.150Z,91.21
2018-07-11T13:30:35.841Z,89.64
2018-07-11T13:33:39.756Z,88.80
2018-07-11T13:36:43.487Z,86.43
2018-07-11T13:39:47.135Z,87.59
2018-07-11T13:42:50.732Z,85.11
2018-07-11T13:45:54.541Z,85.43
2018-07-11T13:48:58.260Z,85.53
2018-07-11T13:52:01.852Z,86.63
2018-07-11T13:55:05.709Z,86.77
2018-07-11T13:58:09.835Z,84.46
2018-07-11T14:01:13.608Z,81.46
2018-07-11T14:04:17.360Z,81.96
2018-07-11T14:07:21.115Z,80.09
2018-07-11T14:10:24.780Z,80.88
2018-07-11T14:13:28.671Z,79.35
2018-07-11T14:16:33.285Z,77.19
2018-07-11T14:19:37.124Z,77.94
2018-07-11T14:22:40.992Z,77.01
2018-07-11T14:25:44.848Z,76.93
2018-07-11T14:28:53.433Z,75.13
2018-07-11T14:31:58.051Z,77.68
2018-07-11T14:35:01.807Z,77.57
2018-07-11T14:38:05.638Z,78.96
2018-07-11T14:41:09.309Z,80.15
2018-07-11T14:44:13.053Z,82.67
2018-07-11T14:48:19.430Z,81.97
2018-07-11T14:51:23.390Z,82.37
2018-07-11T14:54:27.021Z,80.54
2018-07-11T14:57:31.058Z,81.47
2018-07-11T15:00:34.786Z,82.41
2018-07-11T15:03:38.423Z,79.94
2018-07-11T15:06:42.167Z,81.05
2018-07-11T15:09:45.853Z,81.21
2018-07-11T15:12:49.563Z,82.37
2018-07-11T15:15:53.352Z,81.80
2018-07-11T15:18:57.082Z,82.98
2018-07-11T15:22:00.837Z,84.18
2018-07-11T15:25:04.713Z,82.95
2018-07-11T15:28:08.623Z,83.44
2018-07-11T15:31:12.453Z,83.85
2018-07-11T15:34:16.349Z,85.11
2018-07-11T15:37:20.031Z,81.89
2018-07-11T15:40:23.729Z,82.37
2018-07-11T15:43:28.494Z,82.92
2018-07-11T15:46:32.283Z,83.05
2018-07-11T15:49:35.958Z,81.23
2018-07-11T15:52:40.272Z,80.62
2018-07-11T15:55:43.992Z,79.82
2018-07-11T15:58:52.883Z,81.49
2018-07-11T16:01:57.296Z,81.54
2018-07-11T16:05:01.182Z,81.65
2018-07-11T16:08:05.835Z,81.01
2018-07-11T16:11:09.560Z,81.67
2018-07-11T16:14:13.308Z,81.82
2018-07-11T16:17:17.003Z,81.62
2018-07-11T16:20:20.836Z,80.61
2018-07-11T16:23:24.664Z,79.54
2018-07-11T16:26:28.793Z,78.90
2018-07-11T16:29:32.618Z,78.77
2018-07-11T16:32:36.402Z,77.55
2018-07-11T16:35:40.044Z,78.54
2018-07-11T16:38:43.802Z,79.21
2018-07-11T16:41:47.688Z,78.81
2018-07-11T16:44:52.418Z,77.87
2018-07-11T16:47:56.552Z,79.07
2018-07-11T16:51:00.257Z,79.45
2018-07-11T16:54:04.021Z,79.92
2018-07-11T16:57:08.996Z,80.44
2018-07-11T17:00:12.884Z,80.13
2018-07-11T17:03:16.677Z,80.99
2018-07-11T17:06:20.580Z,82.25
2018-07-11T17:09:25.447Z,81.75
2018-07-11T17:12:29.288Z,82.15
2018-07-11T17:15:33.545Z,83.07
2018-07-11T17:18:41.790Z,82.55
2018-07-11T17:21:49.471Z,83.15
2018-07-11T17:25:03.300Z,82.47
2018-07-11T17:28:06.992Z,83.92
2018-07-11T17:31:10.768Z,85.20
2018-07-11T17:34:14.504Z,86.11
2018-07-11T17:37:20.356Z,86.85
2018-07-11T17:40:25.703Z,84.81
2018-07-11T17:43:40.106Z,85.41
2018-07-11T17:46:44.442Z,86.50
2018-07-11T17:49:54.394Z,86.60
2018-07-11T17:53:07.325Z,87.48
2018-07-11T17:56:12.596Z,87.62
2018-07-11T17:59:16.588Z,88.78
2018-07-11T18:02:26.143Z,89.51
2018-07-11T18:05:35.548Z,90.20
2018-07-11T18:08:50.688Z,90.58
2018-07-11T18:11:59.760Z,91.37
2018-07-11T18:15:44.933Z,91.90
2018-07-11T18:18:58.784Z,92.06
2018-07-11T18:22:30.423Z,91.77
2018-07-11T18:25:48.635Z,90.87
2018-07-11T18:29:03.265Z,90.61
2018-07-11T18:32:14.705Z,90.00
2018-07-11T18:35:39.964Z,90.74
2018-07-11T18:39:00.208Z,90.84
2018-07-11T18:44:20.750Z,90.88
2018-07-11T18:48:33.040Z,91.79
2018-07-11T18:51:44.202Z,92.64
2018-07-11T18:55:03.153Z,93.07
2018-07-11T18:59:27.634Z,93.45
2018-07-11T19:03:39.326Z,93.83
2018-07-11T19:06:51.028Z,94.51
2018-07-11T19:09:57.636Z,94.92
2018-07-11T19:13:01.584Z,94.86
2018-07-11T19:16:28.225Z,95.13
2018-07-11T19:20:38.873Z,95.12
2018-07-11T19:24:04.498Z,95.60
2018-07-11T19:27:17.401Z,95.86
2018-07-11T19:30:34.230Z,96.15
2018-07-11T19:33:50.154Z,96.15
2018-07-11T19:36:59.755Z,96.28
2018-07-11T19:40:12.802Z,96.45
2018-07-11T19:43:32.638Z,96.65
2018-07-11T19:46:43.426Z,96.83
2018-07-11T19:49:56.789Z,97.04
2018-07-11T19:53:13.371Z,97.00
2018-07-11T19:56:48.499Z,97.09
2018-07-11T19:59:52.236Z,97.19
2018-07-11T20:02:56.111Z,97.37
2018-07-11T20:05:59.971Z,97.51
2018-07-11T20:09:04.878Z,97.58
2018-07-11T20:12:08.721Z,97.66
2018-07-11T20:15:12.530Z,97.77
2018-07-11T20:18:16.466Z,97.93
2018-07-11T20:21:21.087Z,98.01
2018-07-11T20:24:25.215Z,98.04
2018-07-11T20:27:28.915Z,98.15
2018-07-11T20:30:32.881Z,98.04
2018-07-11T20:33:36.436Z,98.17
2018-07-11T20:36:40.071Z,98.09
2018-07-11T20:39:43.759Z,98.33
2018-07-11T20:42:47.781Z,98.55
2018-07-11T20:45:52.130Z,98.72
2018-07-11T20:48:55.877Z,98.79
2018-07-11T20:51:59.479Z,98.98
2018-07-11T20:55:03.207Z,99.08
2018-07-11T20:58:17.986Z,99.15
2018-07-11T21:01:32.676Z,99.12
2018-07-11T21:05:01.995Z,99.23
2018-07-11T21:09:48.294Z,99.30
2018-07-11T21:13:11.034Z,99.38
2018-07-11T21:18:29.150Z,99.50
2018-07-11T21:21:33.746Z,99.63
2018-07-11T21:24:37.679Z,99.53
2018-07-11T21:27:41.384Z,99.82
2018-07-11T21:30:45.036Z,99.79
2018-07-11T21:33:49.019Z,99.85
2018-07-11T21:36:52.601Z,100.00
2018-07-11T21:39:56.390Z,100.07
2018-07-11T21:43:00.082Z,100.14
2018-07-11T21:46:04.325Z,100.19
2018-07-11T21:49:07.978Z,100.29
2018-07-11T21:52:11.686Z,100.27
2018-07-11T21:55:15.368Z,100.38
2018-07-11T21:58:19.395Z,100.31
2018-07-11T22:01:23.031Z,100.24
2018-07-11T22:04:26.674Z,100.15
2018-07-11T22:07:30.255Z,100.14
2018-07-11T22:10:34.195Z,100.20
2018-07-11T22:13:37.897Z,100.20
2018-07-11T22:16:41.605Z,100.23
2018-07-11T22:19:43.981Z,100.32
2018-07-11T22:22:46.301Z,100.32
2018-07-11T22:25:48.760Z,100.28
2018-07-11T22:28:51.100Z,100.24
2018-07-11T22:31:53.377Z,100.20
2018-07-11T22:34:55.746Z,100.16
2018-07-11T22:37:58.218Z,100.03
2018-07-11T22:41:00.627Z,99.95
2018-07-11T22:44:02.950Z,99.94
2018-07-11T22:47:05.255Z,99.98
2018-07-11T22:50:07.648Z,99.85
2018-07-11T22:53:10.051Z,99.85
2018-07-11T22:56:12.332Z,99.91
2018-07-11T22:59:14.664Z,99.93
2018-07-11T23:02:16.973Z,99.92
2018-07-11T23:05:19.266Z,99.88
2018-07-11T23:08:21.664Z,99.86
2018-07-11T23:11:23.871Z,99.88
2018-07-11T23:14:26.246Z,99.88
2018-07-11T23:17:28.516Z,99.85
2018-07-11T23:20:30.970Z,99.87
2018-07-11T23:23:33.357Z,99.88
2018-07-11T23:26:35.718Z,99.81
2018-07-11T23:29:38.131Z,99.70
2018-07-11T23:32:40.483Z,99.71
2018-07-11T23:35:42.996Z,99.71
2018-07-11T23:38:45.325Z,99.73
2018-07-11T23:41:47.766Z,99.72
2018-07-11T23:44:50.107Z,99.75
2018-07-11T23:47:52.627Z,99.62
2018-07-11T23:50:54.913Z,99.52
2018-07-11T23:53:57.242Z,99.54
2018-07-11T23:56:59.635Z,99.60
